Latest Weather Observations for Mareeba

IDQ60801

Issued at 11:32 am EST Sunday 29 May 2016 (issued every 30 minutes, with the page automatically refreshed every 10 minutes)

About weather observations | Map of weather stations | Latest weather observations for QLD | Other Formats
Station Details ID: 031210 Name: MAREEBA AIRPORT Lat: -17.07 Lon: 145.43 Height: 471.93 m
Data from the previous 72 hours. | See also: Recent months at Mareeba
Date/Time
EST
Temp
°C
App
Temp
°C
Dew
Point
Rel
Hum
%
Delta-T
°C
Wind Press
QNH
hPa
Press
MSL
hPa
Rain
since 9 am
mm
Dir
 
Spd
km/h
Gust
km/h
Spd
kts
Gust
kts
29/11:30am 27.2 29.1 18.5 59 5.6 E 6 11 3 6 1018.1 - 0.0
29/11:00am 26.8 29.8 19.2 63 5.0 N 2 11 1 6 1018.3 - 0.0
29/10:30am 25.5 27.9 17.9 63 4.9 N 2 9 1 5 1018.7 - 0.0
29/10:00am 25.3 26.4 18.0 64 4.7 SSE 9 15 5 8 1018.8 - 0.0
29/09:30am 24.6 25.4 18.1 67 4.2 SSE 11 15 6 8 1019.1 - 0.0
29/09:00am 23.6 23.9 18.0 71 3.6 SSE 13 17 7 9 1019.0 1016.8 0.0
29/08:30am 23.1 24.8 19.3 79 2.5 SE 9 13 5 7 1018.9 - 0.0
29/08:00am 21.4 23.4 18.8 85 1.7 SSE 6 9 3 5 1018.7 - 0.0
29/07:30am 19.6 21.3 18.4 93 0.8 ESE 7 9 4 5 1018.2 - 0.0
29/07:00am 18.2 20.6 17.0 93 0.7 CALM 0 0 0 0 1018.0 - 0.0
29/06:30am 18.9 20.9 17.9 94 0.6 SE 4 7 2 4 1017.6 - 0.0
29/06:00am 18.4 19.9 17.6 95 0.5 SE 6 9 3 5 1016.9 1014.6 0.0
29/05:30am 18.5 21.2 17.7 95 0.5 CALM 0 0 0 0 1016.5 - 0.0
29/05:00am 19.0 21.5 18.2 95 0.5 ESE 2 7 1 4 1016.4 - 0.0
29/04:30am 19.1 22.0 18.3 95 0.5 CALM 0 0 0 0 1016.3 - 0.0
29/04:00am 19.1 22.1 18.4 96 0.4 CALM 0 0 0 0 1016.1 - 0.0
29/03:30am 19.1 22.0 18.1 94 0.6 CALM 0 0 0 0 1016.0 - 0.0
29/03:00am 19.7 22.7 19.2 97 0.3 S 2 7 1 4 1016.0 1013.7 0.0
29/02:30am 20.2 23.8 19.7 97 0.3 CALM 0 0 0 0 1016.1 - 0.0
29/02:00am 20.5 24.2 20.0 97 0.3 CALM 0 0 0 0 1016.4 - 0.0
29/01:30am 20.9 24.1 20.6 98 0.2 SE 4 7 2 4 1016.6 - 0.0
29/01:00am 20.9 24.7 20.1 95 0.5 CALM 0 0 0 0 1016.7 - 0.0
29/12:30am 21.5 25.6 20.8 96 0.5 CALM 0 0 0 0 1017.0 - 0.0
29/12:00am 21.5 25.6 20.7 95 0.5 CALM 0 0 0 0 1017.1 1014.9 0.0
 
Date/Time
EST
Temp
°C
App
Temp
°C
Dew
Point
Rel
Hum
%
Delta-T
°C
Wind Press
QNH
hPa
Press
MSL
hPa
Rain
since 9 am
mm
Dir
 
Spd
km/h
Gust
km/h
Spd
kts
Gust
kts
28/11:30pm 21.7 25.8 20.7 94 0.7 CALM 0 0 0 0 1017.3 - 0.0
28/11:00pm 21.8 25.4 20.6 93 0.8 N 2 7 1 4 1017.4 - 0.0
28/10:30pm 22.2 26.4 21.0 93 0.8 CALM 0 0 0 0 1017.6 - 0.0
28/10:00pm 22.2 26.4 21.0 93 0.8 CALM 0 0 0 0 1017.7 - 0.0
28/09:30pm 22.4 26.6 21.0 92 0.9 CALM 0 0 0 0 1017.6 - 0.0
28/09:00pm 22.4 26.6 21.0 92 0.9 CALM 0 0 0 0 1017.4 1015.2 0.0
28/08:30pm 22.4 26.8 21.4 94 0.7 CALM 0 0 0 0 1017.2 - 0.0
28/08:00pm 22.1 26.1 20.6 91 1.0 CALM 0 0 0 0 1016.9 - 0.0
28/07:30pm 22.3 26.2 20.4 89 1.3 CALM 0 6 0 3 1016.7 - 0.0
28/07:00pm 22.9 25.8 20.6 87 1.5 NW 6 11 3 6 1016.3 - 0.0
28/06:30pm 23.8 27.4 20.5 82 2.2 NNE 2 7 1 4 1015.9 - 0.0
28/06:00pm 24.6 26.8 20.5 78 2.7 NNE 9 13 5 7 1015.5 1013.2 0.0
28/05:30pm 26.2 28.4 20.5 71 3.8 N 9 20 5 11 1015.0 - 0.0
28/05:00pm 27.5 29.2 20.1 64 4.9 N 11 20 6 11 1014.8 - 0.0
28/04:30pm 28.6 29.8 19.8 59 5.9 NNE 13 20 7 11 1014.5 - 0.0
28/04:00pm 29.7 31.8 19.4 54 6.8 ESE 7 13 4 7 1014.2 - 0.0
28/03:30pm 29.3 29.4 18.4 51 7.1 ESE 15 17 8 9 1014.1 - 0.0
28/03:00pm 29.2 29.0 17.7 50 7.4 SE 15 20 8 11 1014.2 1011.9 0.0
28/02:30pm 29.4 30.1 17.9 50 7.5 NE 11 17 6 9 1014.4 - 0.0
28/02:00pm 30.6 31.3 18.0 47 8.2 NNE 11 19 6 10 1014.6 - 0.0
28/01:30pm 31.0 32.0 18.7 48 8.1 N 11 17 6 9 1014.9 - 0.0
28/01:00pm 30.9 31.5 16.9 43 9.0 NNE 9 15 5 8 1015.4 - 0.0
28/12:30pm 30.5 33.0 18.2 47 8.0 WSW 2 7 1 4 1015.6 - 0.0
28/12:00pm 29.8 31.4 17.9 48 7.7 NE 6 15 3 8 1016.0 1013.7 0.0
28/11:30am 29.2 30.2 17.7 50 7.4 ENE 9 15 5 8 1016.5 - 0.0
28/11:00am 28.6 30.3 18.4 54 6.7 E 7 11 4 6 1016.9 - 0.0
28/10:30am 28.3 30.8 19.0 57 6.1 N 4 9 2 5 1017.3 - 0.0
28/10:00am 27.4 30.7 20.0 64 4.9 N 2 7 1 4 1017.7 - 0.0
28/09:30am 26.0 28.8 18.9 65 4.6 NNE 2 7 1 4 1017.9 - 0.0
28/09:00am 24.6 26.9 18.5 69 3.9 S 4 7 2 4 1017.9 1015.6 0.0
28/08:30am 23.0 26.1 19.6 81 2.2 S 2 7 1 4 1017.8 - 0.0
28/08:00am 21.4 23.9 19.0 86 1.5 S 4 9 2 5 1017.7 - 0.0
28/07:30am 20.1 22.1 18.8 92 0.8 SE 6 9 3 5 1017.3 - 0.0
28/07:00am 18.6 21.5 18.1 97 0.3 CALM 0 0 0 0 1017.1 - 0.0
28/06:30am 18.4 21.0 17.6 95 0.5 CALM 0 0 0 0 1016.8 - 0.0
28/06:00am 18.3 20.9 17.5 95 0.5 CALM 0 0 0 0 1016.8 1014.5 0.0
28/05:30am 17.9 20.2 16.8 93 0.7 CALM 0 0 0 0 1016.6 - 0.0
28/05:00am 18.7 21.4 17.7 94 0.6 CALM 0 0 0 0 1016.2 - 0.0
28/04:30am 18.8 21.5 17.8 94 0.6 CALM 0 0 0 0 1016.1 - 0.0
28/04:00am 18.8 21.5 17.8 94 0.6 CALM 0 0 0 0 1015.8 - 0.0
28/03:30am 18.8 21.5 17.8 94 0.6 CALM 0 0 0 0 1015.6 - 0.0
28/03:00am 19.1 22.0 18.3 95 0.5 CALM 0 0 0 0 1015.6 1013.3 0.0
28/02:30am 19.1 21.7 18.3 95 0.5 S 2 6 1 3 1015.6 - 0.0
28/02:00am 18.9 21.6 17.7 93 0.7 CALM 0 6 0 3 1015.8 - 0.0
28/01:30am 19.4 22.4 18.4 94 0.6 CALM 0 0 0 0 1015.8 - 0.0
28/01:00am 19.7 22.7 18.5 93 0.8 CALM 0 0 0 0 1015.9 - 0.0
28/12:30am 19.6 22.5 18.3 92 0.8 CALM 0 0 0 0 1016.1 - 0.0
28/12:00am 19.5 22.2 17.8 90 1.1 CALM 0 0 0 0 1016.1 1013.8 0.0
 
Date/Time
EST
Temp
°C
App
Temp
°C
Dew
Point
Rel
Hum
%
Delta-T
°C
Wind Press
QNH
hPa
Press
MSL
hPa
Rain
since 9 am
mm
Dir
 
Spd
km/h
Gust
km/h
Spd
kts
Gust
kts
27/11:30pm 20.0 22.9 18.3 90 1.1 CALM 0 0 0 0 1016.3 - 0.0
27/11:00pm 20.5 23.8 19.2 92 0.8 CALM 0 0 0 0 1016.4 - 0.0
27/10:30pm 20.7 24.0 19.0 90 1.1 CALM 0 0 0 0 1016.4 - 0.0
27/10:00pm 21.2 24.7 19.5 90 1.1 CALM 0 0 0 0 1016.4 - 0.0
27/09:30pm 21.4 24.9 19.5 89 1.2 CALM 0 0 0 0 1016.4 - 0.0
27/09:00pm 21.8 25.2 19.4 86 1.6 CALM 0 0 0 0 1016.4 1014.1 0.0
27/08:30pm 22.1 24.3 19.5 85 1.7 S 7 9 4 5 1016.2 - 0.0
27/08:00pm 22.8 26.4 19.8 83 2.0 CALM 0 0 0 0 1015.9 - 0.0
27/07:30pm 23.5 27.1 19.8 80 2.4 CALM 0 0 0 0 1015.5 - 0.0
27/07:00pm 23.7 26.7 20.0 80 2.4 NNW 4 9 2 5 1015.2 - 0.0
27/06:30pm 24.6 27.0 19.7 74 3.2 N 6 9 3 5 1014.8 - 0.0
27/06:00pm 25.8 28.1 19.4 67 4.2 NNE 6 11 3 6 1014.4 1012.1 0.0
27/05:30pm 26.8 27.9 19.7 65 4.7 NE 13 19 7 10 1014.0 - 0.0
27/05:00pm 28.4 29.5 19.6 59 5.8 NE 13 22 7 12 1013.8 - 0.0
27/04:30pm 29.8 30.1 15.1 40 9.2 N 7 11 4 6 1013.5 - 0.0
27/04:00pm 31.4 31.6 15.8 39 9.9 NW 9 17 5 9 1013.4 - 0.0
27/03:30pm 32.1 32.4 15.1 35 10.7 N 7 13 4 7 1013.3 - 0.0
27/03:00pm 30.8 32.6 15.6 39 9.6 CALM 0 11 0 6 1013.5 1011.2 0.0
27/02:30pm 30.8 32.7 16.8 43 9.0 N 2 7 1 4 1013.7 - 0.0
27/02:00pm 29.5 30.2 16.0 44 8.5 N 7 13 4 7 1014.1 - 0.0
27/01:30pm 30.7 30.7 16.3 42 9.2 WNW 11 17 6 9 1014.4 - 0.0
27/01:00pm 30.5 30.6 16.5 43 8.9 NW 11 17 6 9 1014.9 - 0.0
27/12:30pm 30.4 30.8 18.2 48 8.0 NW 13 20 7 11 1015.5 - 0.0
27/12:00pm 29.6 30.9 18.4 51 7.3 W 9 15 5 8 1015.9 1013.6 0.0
27/11:30am 28.6 29.2 17.8 52 7.0 WSW 11 20 6 11 1016.5 - 0.0
27/11:00am 27.5 28.8 18.5 58 5.9 N 9 15 5 8 1017.0 - 0.0
27/10:30am 26.3 28.3 17.9 60 5.4 N 4 13 2 7 1017.4 - 0.0
27/10:00am 25.4 27.0 17.8 62 4.9 N 6 11 3 6 1017.9 - 0.0
27/09:30am 24.3 25.9 17.8 67 4.1 N 6 11 3 6 1018.1 - 0.0
27/09:00am 23.2 25.8 17.6 71 3.5 CALM 0 6 0 3 1018.1 1015.8 0.0
27/08:30am 22.3 25.2 18.1 77 2.7 CALM 0 0 0 0 1017.9 - 0.0
27/08:00am 20.6 23.2 17.6 83 1.9 CALM 0 7 0 4 1017.7 - 0.0
27/07:30am 18.9 21.8 18.1 95 0.5 CALM 0 0 0 0 1017.4 - 0.0
27/07:00am 17.4 19.7 16.8 96 0.4 CALM 0 0 0 0 1017.3 - 0.0
27/06:30am 17.1 19.2 16.3 95 0.5 CALM 0 0 0 0 1017.1 - 0.0
27/06:00am 17.1 19.2 16.3 95 0.5 CALM 0 0 0 0 1016.7 1014.4 0.0
27/05:30am 17.2 19.4 16.4 95 0.5 CALM 0 0 0 0 1016.5 - 0.0
27/05:00am 16.9 18.7 15.6 92 0.8 CALM 0 0 0 0 1016.4 - 0.0
27/04:30am 17.4 19.5 16.3 93 0.7 CALM 0 0 0 0 1016.3 - 0.0
27/04:00am 17.7 20.0 16.7 94 0.6 CALM 0 0 0 0 1016.2 - 0.0
27/03:30am 18.1 20.6 17.3 95 0.5 CALM 0 0 0 0 1016.2 - 0.0
27/03:00am 18.3 20.5 17.5 95 0.5 E 2 7 1 4 1016.1 1013.8 0.0
27/02:30am 18.3 20.9 17.5 95 0.5 CALM 0 0 0 0 1016.2 - 0.0
27/02:00am 18.3 20.9 17.5 95 0.5 CALM 0 0 0 0 1016.4 - 0.0
27/01:30am 18.4 21.0 17.4 94 0.6 CALM 0 0 0 0 1016.4 - 0.0
27/01:00am 18.1 20.4 16.8 92 0.8 CALM 0 0 0 0 1016.5 - 0.0
27/12:30am 18.6 21.2 17.4 93 0.7 CALM 0 0 0 0 1016.6 - 0.0
27/12:00am 18.8 21.4 17.6 93 0.7 CALM 0 0 0 0 1016.6 1014.3 0.0
 
Date/Time
EST
Temp
°C
App
Temp
°C
Dew
Point
Rel
Hum
%
Delta-T
°C
Wind Press
QNH
hPa
Press
MSL
hPa
Rain
since 9 am
mm
Dir
 
Spd
km/h
Gust
km/h
Spd
kts
Gust
kts
26/11:30pm 19.2 22.0 18.0 93 0.8 CALM 0 0 0 0 1016.7 - 0.0
26/11:00pm 19.2 22.0 17.9 92 0.8 CALM 0 0 0 0 1016.8 - 0.0
26/10:30pm 19.2 21.7 17.3 89 1.2 CALM 0 0 0 0 1016.9 - 0.0
26/10:00pm 19.4 22.0 17.5 89 1.2 CALM 0 0 0 0 1016.8 - 0.0
26/09:30pm 19.8 22.6 17.9 89 1.2 CALM 0 0 0 0 1016.9 - 0.0
26/09:00pm 19.9 22.7 17.9 88 1.3 CALM 0 0 0 0 1016.9 1014.6 0.0
26/08:30pm 20.5 23.4 18.1 86 1.5 CALM 0 0 0 0 1016.9 - 0.0
26/08:00pm 21.0 23.9 18.2 84 1.8 CALM 0 0 0 0 1017.0 - 0.0
26/07:30pm 21.3 24.0 17.7 80 2.3 CALM 0 0 0 0 1016.6 - 0.0
26/07:00pm 22.1 24.9 17.9 77 2.7 CALM 0 6 0 3 1016.1 - 0.0
26/06:30pm 23.1 25.9 18.0 73 3.2 CALM 0 0 0 0 1015.7 - 0.0
26/06:00pm 23.6 25.0 17.8 70 3.7 NNE 7 13 4 7 1015.4 1013.1 0.0
26/05:30pm 24.8 25.5 18.0 66 4.4 NE 11 19 6 10 1015.2 - 0.0
26/05:00pm 26.1 26.5 18.2 61 5.1 NNE 13 20 7 11 1015.1 - 0.0
26/04:30pm 27.6 28.8 18.3 57 6.0 ENE 9 15 5 8 1015.0 - 0.0
26/04:00pm 28.1 28.9 18.2 55 6.4 NNE 11 17 6 9 1014.8 - 0.0
26/03:30pm 28.4 28.6 17.6 52 7.0 NNE 13 20 7 11 1014.8 - 0.0
26/03:00pm 28.5 28.7 17.7 52 7.0 NNE 13 19 7 10 1015.1 1012.8 0.0
26/02:30pm 28.3 28.9 17.8 53 6.8 NNE 11 17 6 9 1015.4 - 0.0
26/02:00pm 28.6 29.9 18.4 54 6.7 NNE 9 15 5 8 1015.6 - 0.0
26/01:30pm 27.7 28.7 16.9 51 6.9 NE 7 15 4 8 1016.0 - 0.0
26/01:00pm 28.6 29.6 17.8 52 7.0 N 9 15 5 8 1016.4 - 0.0
26/12:30pm 27.7 29.2 17.5 53 6.5 NNE 6 11 3 6 1016.8 - 0.0
26/12:00pm 27.3 28.4 17.2 54 6.4 NNE 7 13 4 7 1017.2 1015.0 0.0

Other Formats:

Comma delimited format used in spreadsheet applications
http://www.bom.gov.au/fwo/IDQ60801/IDQ60801.95286.axf

JavaScript Object Notation format (JSON) in row-major order
http://www.bom.gov.au/fwo/IDQ60801/IDQ60801.95286.json